Time;durP1;ratioP1;P1;durP2;ratioP2;P2;SDS_P1;SDS_P2;PMS_P1;PMS_P2;Temp;Humidity;BMP_temperature;BMP_pressure;BME280_temperature;BME280_humidity;BME280_pressure;Samples;Min_cycle;Max_cycle;Signal;HPM_P1;HPM_P2
2023/01/03 00:00:38;;;;;;;4.63;3.33;;;8.00;1.00;;;;;;5032506;28;20202;-68
2023/01/03 00:03:04;;;;;;;5.37;3.53;;;7.90;1.00;;;;;;5011416;28;20162;-70
2023/01/03 00:05:29;;;;;;;8.17;3.90;;;7.90;1.00;;;;;;5018627;28;20558;-69
2023/01/03 00:07:55;;;;;;;5.97;4.00;;;7.80;1.00;;;;;;5018055;28;20272;-68
2023/01/03 00:10:20;;;;;;;7.80;4.20;;;7.80;2.20;;;;;;5014974;28;20281;-69
2023/01/03 00:12:46;;;;;;;5.43;3.70;;;7.80;1.30;;;;;;5015369;28;20644;-69
2023/01/03 00:15:14;;;;;;;4.17;3.70;;;7.70;2.10;;;;;;5020061;28;20545;-69
2023/01/03 00:17:41;;;;;;;4.90;3.03;;;7.60;3.90;;;;;;5018499;28;20245;-70
2023/01/03 00:20:08;;;;;;;5.90;3.60;;;7.60;2.60;;;;;;5012846;28;20840;-68
2023/01/03 00:22:33;;;;;;;4.33;3.17;;;7.60;1.80;;;;;;5034480;28;20432;-69
2023/01/03 00:24:59;;;;;;;3.77;3.03;;;7.60;1.70;;;;;;5020352;28;20993;-68
2023/01/03 00:27:26;;;;;;;3.90;3.20;;;7.50;3.10;;;;;;5016869;28;20225;-67
2023/01/03 00:29:51;;;;;;;3.73;2.87;;;7.60;1.00;;;;;;5021704;28;20193;-67
2023/01/03 00:32:17;;;;;;;6.43;3.10;;;7.50;2.50;;;;;;5020823;28;20441;-70
2023/01/03 00:34:44;;;;;;;4.00;3.20;;;7.50;3.40;;;;;;5026709;28;20178;-69
2023/01/03 00:37:11;;;;;;;3.50;3.03;;;7.40;2.90;;;;;;5019711;28;20472;-70
2023/01/03 00:39:36;;;;;;;4.10;3.17;;;7.40;2.30;;;;;;5016140;28;20428;-70
2023/01/03 00:42:02;;;;;;;5.90;3.37;;;7.30;2.50;;;;;;5018529;28;20838;-70
2023/01/03 00:44:27;;;;;;;4.77;2.90;;;7.30;4.00;;;;;;5023084;28;20181;-69
2023/01/03 00:46:53;;;;;;;5.23;3.73;;;7.30;3.60;;;;;;5021705;28;20188;-70
2023/01/03 00:49:19;;;;;;;6.10;3.30;;;7.40;4.00;;;;;;5016392;28;20213;-69
2023/01/03 00:51:45;;;;;;;4.50;3.50;;;7.50;2.80;;;;;;5022668;28;20218;-69
2023/01/03 00:54:12;;;;;;;4.43;3.40;;;7.60;1.90;;;;;;5011622;28;20699;-70
2023/01/03 00:56:40;;;;;;;4.57;3.10;;;7.40;1.00;;;;;;5026341;28;20245;-69
2023/01/03 00:59:08;;;;;;;4.67;3.23;;;7.30;1.80;;;;;;5017311;28;20465;-69
2023/01/03 01:01:41;;;;;;;5.00;3.20;;;7.70;2.70;;;;;;5027224;28;20428;-70
2023/01/03 01:04:13;;;;;;;4.73;3.57;;;7.20;3.30;;;;;;5019689;28;20494;-69
2023/01/03 01:06:42;;;;;;;7.30;3.80;;;7.20;4.30;;;;;;5019944;28;20429;-69
2023/01/03 01:09:11;;;;;;;5.50;3.83;;;7.10;3.80;;;;;;5013888;28;20433;-69
2023/01/03 01:11:37;;;;;;;4.87;3.50;;;7.10;3.70;;;;;;5022921;28;20546;-70
2023/01/03 01:14:18;;;;;;;4.97;3.57;;;7.00;4.50;;;;;;5030051;28;20519;-69
2023/01/03 01:16:52;;;;;;;3.80;3.40;;;7.00;3.80;;;;;;5028259;28;20228;-69
2023/01/03 01:19:19;;;;;;;4.93;3.70;;;6.90;4.20;;;;;;5027955;28;20938;-70
2023/01/03 01:21:45;;;;;;;9.83;3.67;;;6.90;3.60;;;;;;5029940;28;20546;-69
2023/01/03 01:24:12;;;;;;;4.27;3.87;;;7.00;5.20;;;;;;5024815;28;20440;-69
2023/01/03 01:26:38;;;;;;;4.43;3.60;;;6.80;7.20;;;;;;5018057;28;20183;-69
2023/01/03 01:29:04;;;;;;;4.80;3.43;;;6.70;7.30;;;;;;5029329;28;20417;-69
2023/01/03 01:31:30;;;;;;;4.13;3.63;;;6.70;6.70;;;;;;5021222;28;20453;-68
2023/01/03 01:33:56;;;;;;;6.50;3.60;;;6.70;5.70;;;;;;5019842;28;20413;-69
2023/01/03 01:36:24;;;;;;;4.97;4.10;;;6.70;5.60;;;;;;5023728;28;20561;-69
2023/01/03 01:38:58;;;;;;;6.43;4.30;;;6.70;4.00;;;;;;5020560;28;20768;-69
2023/01/03 01:44:39;;;;;;;5.37;3.97;;;6.60;5.40;;;;;;5010828;28;20475;-68
2023/01/03 01:47:12;;;;;;;4.20;3.63;;;6.50;5.70;;;;;;5016852;28;20422;-69
2023/01/03 01:49:37;;;;;;;5.77;3.87;;;6.50;5.00;;;;;;5019039;28;20417;-70
2023/01/03 01:52:03;;;;;;;4.90;3.67;;;6.60;5.20;;;;;;5030655;28;20487;-70
2023/01/03 01:54:29;;;;;;;5.47;4.13;;;6.60;4.10;;;;;;5022279;28;20554;-70
2023/01/03 01:56:55;;;;;;;5.97;4.30;;;6.50;4.20;;;;;;5016635;28;20187;-70
2023/01/03 01:59:21;;;;;;;5.43;4.70;;;6.50;5.00;;;;;;5022032;28;20253;-68
2023/01/03 02:01:48;;;;;;;7.33;4.57;;;6.60;5.20;;;;;;5043098;28;20543;-68
2023/01/03 02:04:22;;;;;;;7.43;4.70;;;6.50;5.10;;;;;;5020596;28;20173;-69
2023/01/03 02:06:49;;;;;;;5.93;4.20;;;6.50;5.00;;;;;;5020488;28;20420;-70
2023/01/03 02:09:15;;;;;;;6.80;4.30;;;6.50;5.90;;;;;;5011610;28;20441;-69
2023/01/03 02:13:04;;;;;;;10.23;5.10;;;6.50;8.40;;;;;;5022086;28;20818;-69
2023/01/03 02:15:11;;;;;;;10.03;6.67;;;6.50;9.40;;;;;;5023062;28;20287;-70
2023/01/03 02:17:42;;;;;;;6.90;5.13;;;6.50;11.80;;;;;;5023819;28;20468;-68
2023/01/03 02:20:17;;;;;;;5.97;4.50;;;6.50;13.60;;;;;;5026417;28;20851;-69
2023/01/03 02:23:17;;;;;;;6.30;4.77;;;6.50;13.90;;;;;;5025373;28;20451;-69
2023/01/03 02:26:07;;;;;;;6.13;4.33;;;6.50;16.30;;;;;;5020865;28;21009;-70
2023/01/03 02:28:51;;;;;;;5.60;4.03;;;6.50;16.60;;;;;;5022972;28;20440;-70
2023/01/03 02:31:24;;;;;;;7.13;4.00;;;6.60;15.00;;;;;;5025797;28;20448;-69
2023/01/03 02:33:54;;;;;;;6.00;4.27;;;6.60;12.90;;;;;;5020502;28;20507;-69
2023/01/03 02:36:39;;;;;;;6.57;4.10;;;6.60;9.40;;;;;;5042304;28;20936;-70
2023/01/03 02:39:38;;;;;;;5.50;3.90;;;6.50;9.40;;;;;;5027884;28;20475;-68
2023/01/03 02:45:04;;;;;;;7.03;4.57;;;6.40;11.20;;;;;;5021738;28;20428;-70
2023/01/03 02:47:38;;;;;;;6.10;4.40;;;6.50;10.10;;;;;;5017538;28;20429;-69
2023/01/03 02:50:10;;;;;;;10.73;4.60;;;6.50;7.50;;;;;;5016280;28;20942;-69
2023/01/03 02:52:39;;;;;;;8.80;5.00;;;6.60;6.90;;;;;;5027675;28;20938;-69
2023/01/03 02:55:11;;;;;;;6.67;4.50;;;6.60;6.00;;;;;;5014107;28;20440;-70
2023/01/03 02:57:47;;;;;;;8.03;5.17;;;6.60;6.10;;;;;;5018347;28;20454;-69
2023/01/03 03:00:18;;;;;;;7.60;4.67;;;6.60;6.60;;;;;;5017070;28;20523;-68
2023/01/03 03:02:50;;;;;;;7.67;5.37;;;6.50;7.00;;;;;;5015028;28;20421;-69
2023/01/03 03:05:22;;;;;;;7.10;5.03;;;6.50;8.90;;;;;;5017074;28;20520;-69
2023/01/03 03:07:48;;;;;;;6.57;4.80;;;6.50;10.10;;;;;;5021188;28;20919;-68
2023/01/03 03:13:13;;;;;;;7.90;4.83;;;6.40;8.70;;;;;;5021542;28;20563;-69
2023/01/03 03:15:53;;;;;;;5.97;4.60;;;6.30;7.60;;;;;;5024870;28;20459;-69
2023/01/03 03:18:28;;;;;;;7.13;5.00;;;6.30;7.50;;;;;;5026691;28;20529;-68
2023/01/03 03:26:37;;;;;;;8.40;4.73;;;6.20;12.20;;;;;;5023855;28;21077;-68
2023/01/03 03:29:12;;;;;;;7.97;4.40;;;6.10;12.70;;;;;;5017763;28;20427;-68
2023/01/03 03:31:42;;;;;;;5.63;4.80;;;6.10;16.00;;;;;;5025087;28;20447;-68
2023/01/03 03:34:16;;;;;;;7.87;4.47;;;6.10;16.90;;;;;;5016455;28;20444;-68
2023/01/03 03:37:08;;;;;;;5.53;4.30;;;6.10;16.50;;;;;;5019423;28;20878;-68
2023/01/03 03:45:25;;;;;;;9.93;4.90;;;6.00;20.60;;;;;;5021772;28;20391;-70
2023/01/03 03:47:57;;;;;;;7.40;4.87;;;6.00;21.70;;;;;;5019200;28;20420;-68
2023/01/03 03:50:33;;;;;;;5.50;4.20;;;6.00;25.80;;;;;;5021923;28;20455;-69
2023/01/03 03:53:03;;;;;;;6.40;4.30;;;6.10;24.50;;;;;;5024229;28;20416;-69
2023/01/03 03:55:40;;;;;;;6.37;4.50;;;6.10;21.10;;;;;;5013165;28;20440;-68
2023/01/03 03:58:20;;;;;;;6.60;4.03;;;5.90;19.20;;;;;;5018784;28;21010;-69
2023/01/03 04:00:48;;;;;;;6.63;4.60;;;5.90;19.10;;;;;;5020718;28;20492;-69
2023/01/03 04:03:15;;;;;;;7.20;4.60;;;5.80;22.10;;;;;;5015689;28;20474;-69
2023/01/03 04:05:47;;;;;;;5.80;4.47;;;5.80;18.60;;;;;;5040108;28;20484;-69
2023/01/03 04:08:12;;;;;;;6.70;4.73;;;5.80;18.80;;;;;;5016827;28;20524;-70
2023/01/03 04:10:38;;;;;;;6.53;4.43;;;5.80;17.30;;;;;;5022928;28;20491;-68
2023/01/03 04:13:04;;;;;;;5.80;4.30;;;5.70;18.10;;;;;;5034986;28;20185;-69
2023/01/03 04:15:29;;;;;;;6.10;4.30;;;5.70;16.40;;;;;;5019777;28;20677;-69
2023/01/03 04:17:55;;;;;;;6.53;4.07;;;6.00;18.90;;;;;;5018329;28;20577;-68
2023/01/03 04:20:20;;;;;;;4.93;4.20;;;5.70;17.80;;;;;;5028921;28;20190;-69
2023/01/03 04:22:46;;;;;;;6.57;4.87;;;5.60;17.40;;;;;;5015520;28;20639;-69
2023/01/03 04:25:11;;;;;;;6.57;4.37;;;6.10;19.00;;;;;;5021080;28;20177;-69
2023/01/03 04:27:37;;;;;;;6.30;4.30;;;5.60;17.60;;;;;;5016867;28;20177;-68
2023/01/03 04:30:04;;;;;;;5.73;4.00;;;5.50;18.60;;;;;;5019876;28;20282;-69
2023/01/03 04:32:30;;;;;;;5.80;4.23;;;5.50;20.60;;;;;;5013343;28;20270;-70
2023/01/03 04:34:55;;;;;;;6.23;4.30;;;5.70;20.20;;;;;;5020712;28;20524;-69
2023/01/03 04:37:21;;;;;;;6.00;4.63;;;5.50;23.40;;;;;;5019631;28;20251;-68
2023/01/03 04:39:46;;;;;;;6.40;4.70;;;5.60;23.70;;;;;;5018878;28;20276;-69
2023/01/03 04:44:55;;;;;;;9.20;5.07;;;5.50;20.60;;;;;;5014126;28;20189;-68
2023/01/03 04:47:21;;;;;;;7.40;5.00;;;5.70;24.20;;;;;;5017365;28;20428;-68
2023/01/03 04:49:47;;;;;;;7.00;5.20;;;5.40;23.60;;;;;;5009929;28;20178;-69
2023/01/03 04:52:14;;;;;;;6.33;4.63;;;5.40;23.60;;;;;;5022938;28;20241;-68
2023/01/03 04:54:40;;;;;;;6.00;4.40;;;5.40;21.60;;;;;;5026663;28;20206;-68
2023/01/03 04:57:06;;;;;;;6.50;5.00;;;5.40;18.00;;;;;;5014849;28;20464;-69
2023/01/03 04:59:31;;;;;;;6.33;4.80;;;5.40;19.10;;;;;;5023315;28;20269;-69
2023/01/03 05:01:57;;;;;;;8.10;4.53;;;5.80;20.80;;;;;;5020110;28;20791;-69
2023/01/03 05:04:22;;;;;;;6.10;4.40;;;5.30;23.40;;;;;;5012366;28;20178;-69
2023/01/03 05:06:51;;;;;;;6.10;4.57;;;5.60;20.70;;;;;;5030551;28;20732;-68
2023/01/03 05:09:16;;;;;;;7.70;4.83;;;5.30;22.40;;;;;;5028713;28;20217;-69
2023/01/03 05:11:41;;;;;;;7.33;5.20;;;5.20;20.90;;;;;;5021148;28;20452;-70
2023/01/03 05:14:07;;;;;;;6.90;4.77;;;5.20;20.40;;;;;;5020201;28;20185;-68
2023/01/03 05:16:33;;;;;;;6.60;4.90;;;5.20;18.80;;;;;;5024028;28;20288;-68
2023/01/03 05:18:58;;;;;;;7.50;5.17;;;5.50;21.60;;;;;;5017113;28;20225;-69
2023/01/03 05:26:54;;;;;;;6.93;4.23;;;5.20;19.20;;;;;;5020534;28;20463;-68
2023/01/03 05:29:21;;;;;;;4.60;3.93;;;5.20;15.80;;;;;;5037557;28;20460;-69
2023/01/03 05:31:47;;;;;;;6.80;4.27;;;5.10;16.00;;;;;;5018900;28;20874;-69
2023/01/03 05:34:13;;;;;;;6.70;4.37;;;5.10;16.70;;;;;;5022287;28;20552;-68
2023/01/03 05:36:38;;;;;;;5.63;4.07;;;5.40;17.40;;;;;;5025308;28;20520;-67
2023/01/03 05:39:04;;;;;;;5.70;4.13;;;5.10;15.00;;;;;;5015674;28;20221;-69
2023/01/03 05:44:14;;;;;;;10.47;4.87;;;5.10;14.70;;;;;;5016096;28;20415;-70
2023/01/03 05:46:40;;;;;;;7.27;4.73;;;5.00;15.30;;;;;;5029190;28;20811;-69
2023/01/03 05:49:05;;;;;;;4.70;3.73;;;5.00;14.90;;;;;;5019117;28;20184;-69
2023/01/03 05:51:31;;;;;;;7.53;4.47;;;5.00;18.00;;;;;;5026538;28;20610;-70
2023/01/03 05:53:56;;;;;;;4.97;4.10;;;4.90;13.50;;;;;;5019932;28;20236;-69
2023/01/03 05:56:22;;;;;;;5.60;4.57;;;5.00;14.30;;;;;;5029370;28;20382;-67
2023/01/03 05:58:48;;;;;;;7.37;4.90;;;5.10;15.00;;;;;;5019681;28;20288;-68
2023/01/03 06:01:14;;;;;;;6.20;4.57;;;5.00;13.70;;;;;;5017528;28;20286;-68
2023/01/03 06:03:47;;;;;;;5.83;4.23;;;4.80;16.70;;;;;;5016662;28;20184;-69
2023/01/03 06:06:14;;;;;;;5.30;4.00;;;4.80;13.70;;;;;;5019670;28;20512;-69
2023/01/03 06:08:39;;;;;;;8.07;4.20;;;4.80;14.40;;;;;;5025479;28;20433;-68
2023/01/03 06:11:11;;;;;;;6.70;4.30;;;5.10;14.50;;;;;;5018246;28;20452;-70
2023/01/03 06:13:38;;;;;;;6.17;3.90;;;5.50;12.80;;;;;;5018980;28;20182;-69
2023/01/03 06:18:54;;;;;;;6.93;3.83;;;4.80;12.60;;;;;;5018149;28;20994;-68
2023/01/03 06:21:19;;;;;;;5.37;4.00;;;4.80;14.00;;;;;;5021329;28;20453;-69
2023/01/03 06:23:46;;;;;;;4.80;4.20;;;5.20;14.20;;;;;;5013748;28;20443;-70
2023/01/03 06:26:20;;;;;;;7.53;4.37;;;5.10;11.80;;;;;;5019276;28;20206;-69
2023/01/03 06:28:45;;;;;;;6.10;3.90;;;4.80;13.10;;;;;;5018724;28;20626;-69
2023/01/03 06:31:11;;;;;;;7.10;4.10;;;4.80;11.50;;;;;;5020825;28;21024;-68
2023/01/03 06:33:37;;;;;;;5.33;4.13;;;4.80;13.20;;;;;;5012833;28;20185;-69
2023/01/03 06:36:08;;;;;;;5.40;4.20;;;4.80;10.60;;;;;;5021310;28;20181;-68
2023/01/03 06:38:34;;;;;;;5.67;4.10;;;4.80;12.70;;;;;;5012121;28;20472;-70
2023/01/03 06:41:00;;;;;;;5.73;4.00;;;4.80;16.50;;;;;;5019612;28;20456;-68
2023/01/03 06:43:26;;;;;;;6.20;4.80;;;4.80;15.40;;;;;;5017491;28;20429;-69
2023/01/03 06:54:16;;;;;;;7.93;4.67;;;4.80;15.10;;;;;;5019467;28;20646;-69
2023/01/03 06:56:41;;;;;;;5.83;4.20;;;4.70;12.10;;;;;;5017353;28;20443;-69
2023/01/03 06:59:07;;;;;;;6.43;4.40;;;4.90;16.10;;;;;;5026514;28;20476;-69
2023/01/03 07:01:32;;;;;;;6.90;4.80;;;4.70;15.20;;;;;;5026847;28;20200;-69
2023/01/03 07:03:58;;;;;;;6.53;4.67;;;4.70;16.00;;;;;;5020080;28;20183;-70
2023/01/03 07:06:23;;;;;;;6.60;4.33;;;4.60;15.40;;;;;;5023921;28;20236;-68
2023/01/03 07:08:50;;;;;;;8.00;4.77;;;4.90;15.10;;;;;;5017519;28;20732;-69
2023/01/03 07:11:15;;;;;;;6.80;4.90;;;4.60;16.80;;;;;;5021087;28;20256;-69
2023/01/03 07:13:59;;;;;;;6.53;5.10;;;4.50;16.60;;;;;;5019114;28;20519;-69
2023/01/03 07:16:40;;;;;;;6.77;4.80;;;4.50;17.10;;;;;;5018760;28;20174;-68
2023/01/03 07:19:08;;;;;;;7.77;5.83;;;4.50;18.80;;;;;;5025470;28;20867;-69
2023/01/03 07:21:34;;;;;;;7.57;5.17;;;4.50;16.90;;;;;;5020871;28;20456;-68
2023/01/03 07:24:01;;;;;;;8.90;5.63;;;4.70;18.10;;;;;;5022784;28;20909;-67
2023/01/03 07:26:29;;;;;;;9.50;5.47;;;4.80;18.30;;;;;;5021399;28;20401;-68
2023/01/03 07:28:55;;;;;;;13.27;5.83;;;5.00;17.90;;;;;;5025204;28;20428;-68
2023/01/03 07:31:21;;;;;;;7.00;5.43;;;4.90;15.50;;;;;;5019743;28;20559;-68
2023/01/03 07:33:46;;;;;;;8.27;4.97;;;4.40;14.70;;;;;;5025123;28;20942;-68
2023/01/03 07:36:14;;;;;;;8.90;5.40;;;4.40;17.20;;;;;;5022714;28;20201;-69
2023/01/03 07:38:42;;;;;;;9.60;5.20;;;4.40;16.50;;;;;;5025677;28;20213;-68
2023/01/03 07:41:09;;;;;;;11.30;5.60;;;4.50;18.00;;;;;;5016745;28;20438;-68
2023/01/03 07:43:36;;;;;;;7.93;5.07;;;4.70;16.40;;;;;;5019171;28;20515;-68
2023/01/03 07:46:04;;;;;;;7.40;5.40;;;4.80;17.70;;;;;;5012745;28;20429;-69
2023/01/03 07:48:29;;;;;;;7.23;5.47;;;4.60;17.90;;;;;;5016293;28;20421;-68
2023/01/03 07:50:56;;;;;;;7.63;5.30;;;5.10;15.60;;;;;;5022546;28;20954;-68
2023/01/03 07:53:22;;;;;;;10.10;6.10;;;4.70;16.80;;;;;;5027566;28;20548;-69
2023/01/03 07:55:48;;;;;;;7.20;4.93;;;5.00;18.00;;;;;;5015840;28;20452;-69
2023/01/03 07:58:13;;;;;;;9.87;5.87;;;4.80;15.90;;;;;;5016370;28;20205;-69
2023/01/03 08:00:40;;;;;;;7.57;4.90;;;5.10;13.70;;;;;;5019073;28;20280;-69
2023/01/03 08:03:06;;;;;;;7.33;5.23;;;4.90;11.60;;;;;;5014500;28;20256;-69
2023/01/03 08:05:34;;;;;;;8.73;6.20;;;5.30;10.20;;;;;;5023867;28;20420;-69
2023/01/03 08:08:00;;;;;;;7.33;5.20;;;5.00;8.80;;;;;;5018452;28;20465;-69
2023/01/03 08:13:18;;;;;;;7.73;5.00;;;5.30;8.30;;;;;;5025285;28;20196;-70
2023/01/03 08:15:53;;;;;;;6.47;5.40;;;5.10;5.40;;;;;;5025319;28;20420;-70
2023/01/03 08:18:22;;;;;;;7.27;5.43;;;5.20;6.80;;;;;;5024965;28;20553;-69
2023/01/03 08:20:47;;;;;;;9.37;5.40;;;5.30;7.30;;;;;;5030180;28;20446;-68
2023/01/03 08:23:13;;;;;;;10.03;5.47;;;5.20;6.80;;;;;;5026171;28;20851;-67
2023/01/03 08:25:39;;;;;;;8.87;5.40;;;5.20;3.80;;;;;;5017626;28;20178;-69
2023/01/03 08:28:06;;;;;;;6.93;5.03;;;5.40;4.40;;;;;;5015070;28;20304;-69
2023/01/03 08:30:37;;;;;;;7.23;5.40;;;5.40;6.80;;;;;;5017674;28;20203;-69
2023/01/03 08:33:02;;;;;;;7.17;5.13;;;5.50;5.20;;;;;;5020993;28;20934;-69
2023/01/03 08:35:33;;;;;;;8.53;6.00;;;5.60;1.00;;;;;;5018721;28;20456;-69
2023/01/03 08:38:01;;;;;;;8.17;5.57;;;5.70;1.00;;;;;;5019326;28;20198;-69
2023/01/03 08:40:28;;;;;;;11.30;5.43;;;5.70;1.00;;;;;;5019253;28;20428;-68
2023/01/03 08:42:54;;;;;;;11.90;5.73;;;5.70;1.00;;;;;;5022837;28;20439;-70
2023/01/03 08:45:20;;;;;;;7.80;5.67;;;5.80;1.00;;;;;;5020975;28;20788;-70
2023/01/03 08:47:46;;;;;;;14.53;6.53;;;5.70;1.00;;;;;;5021475;28;20193;-69
2023/01/03 08:50:12;;;;;;;10.60;6.23;;;5.70;1.00;;;;;;5025864;28;20431;-68
2023/01/03 08:52:38;;;;;;;10.30;6.40;;;5.80;1.00;;;;;;5032544;28;20273;-69
2023/01/03 08:55:04;;;;;;;9.87;5.63;;;5.90;1.00;;;;;;5018685;28;20521;-69
2023/01/03 08:57:30;;;;;;;8.67;5.43;;;6.00;1.00;;;;;;5019199;28;20228;-69
2023/01/03 08:59:55;;;;;;;8.30;5.80;;;6.00;1.00;;;;;;5018163;28;20410;-67
2023/01/03 09:02:21;;;;;;;8.00;6.03;;;6.00;1.00;;;;;;5026677;28;20249;-69
2023/01/03 09:04:46;;;;;;;9.23;6.33;;;6.60;1.00;;;;;;5019087;28;20262;-69
2023/01/03 09:07:12;;;;;;;7.33;5.43;;;6.40;1.00;;;;;;5022301;28;20178;-68
2023/01/03 09:09:37;;;;;;;9.33;6.30;;;6.40;1.00;;;;;;5016144;28;20189;-69
2023/01/03 09:12:03;;;;;;;7.97;5.53;;;6.50;1.00;;;;;;5028374;28;20809;-70
2023/01/03 09:14:29;;;;;;;8.23;5.80;;;6.80;1.00;;;;;;5029765;28;20174;-68
2023/01/03 09:16:55;;;;;;;7.70;6.33;;;7.00;1.00;;;;;;5020972;28;20186;-68
2023/01/03 15:40:04;;;;;;;3.83;2.20;;;8.60;1.00;;;;;;5057864;28;20511;-69
2023/01/03 15:45:21;;;;;;;4.43;2.43;;;8.60;1.00;;;;;;5040108;28;20406;-70
2023/01/03 15:47:48;;;;;;;5.63;2.43;;;8.60;1.00;;;;;;5047471;28;20460;-70
2023/01/03 15:50:17;;;;;;;9.03;2.90;;;8.80;1.00;;;;;;5054727;28;20453;-70
2023/01/03 15:52:43;;;;;;;3.13;2.30;;;8.90;1.00;;;;;;5042779;28;20415;-68
2023/01/03 15:55:12;;;;;;;4.70;2.37;;;9.00;1.00;;;;;;5044506;28;20650;-70
2023/01/03 15:57:38;;;;;;;4.17;2.40;;;9.40;1.00;;;;;;5045825;28;20179;-71
2023/01/03 16:00:06;;;;;;;5.10;2.20;;;9.20;1.00;;;;;;5046270;28;20408;-70
2023/01/03 16:02:31;;;;;;;3.93;2.27;;;9.30;1.00;;;;;;5045276;28;20523;-71
2023/01/03 16:04:57;;;;;;;5.40;2.77;;;9.40;1.00;;;;;;5045333;28;20419;-70
2023/01/03 16:07:22;;;;;;;5.20;3.20;;;9.40;1.00;;;;;;5045061;28;20347;-70
2023/01/03 16:09:48;;;;;;;2.87;2.40;;;9.40;1.00;;;;;;5047587;28;20185;-70
2023/01/03 16:12:20;;;;;;;2.83;2.30;;;9.40;1.00;;;;;;5037264;28;20201;-70
2023/01/03 16:14:50;;;;;;;3.43;2.67;;;9.40;1.00;;;;;;5025218;28;20182;-70
2023/01/03 16:17:20;;;;;;;7.13;2.20;;;9.30;1.00;;;;;;5036815;28;20802;-70
2023/01/03 16:19:46;;;;;;;10.90;2.50;;;9.30;1.00;;;;;;5038594;28;20463;-70
2023/01/03 16:22:12;;;;;;;3.27;2.37;;;9.30;1.00;;;;;;5033716;28;20800;-70
2023/01/03 16:24:39;;;;;;;7.30;2.37;;;9.30;1.00;;;;;;5045356;28;20185;-70
2023/01/03 16:27:14;;;;;;;5.40;3.07;;;9.30;1.00;;;;;;5046092;28;20416;-70
2023/01/03 16:29:40;;;;;;;5.30;2.60;;;9.30;1.00;;;;;;5045535;28;20810;-71
2023/01/03 16:32:06;;;;;;;4.03;2.50;;;9.20;1.00;;;;;;5045285;28;20492;-70
2023/01/03 16:34:31;;;;;;;3.67;2.50;;;9.10;1.00;;;;;;5045487;28;20650;-70
2023/01/03 16:36:57;;;;;;;3.63;2.17;;;9.10;1.00;;;;;;5045379;28;20209;-70
2023/01/03 16:39:25;;;;;;;4.00;2.50;;;9.00;1.00;;;;;;5029654;28;20206;-71
2023/01/03 16:44:39;;;;;;;5.57;2.90;;;8.80;1.00;;;;;;5045506;28;20415;-71
2023/01/03 16:47:31;;;;;;;4.50;2.97;;;8.80;1.00;;;;;;5046025;28;20447;-71
2023/01/03 16:50:00;;;;;;;15.50;9.70;;;8.70;1.00;;;;;;5039857;28;20415;-70
2023/01/03 16:52:30;;;;;;;14.20;8.10;;;8.60;1.00;;;;;;5019292;28;21053;-71
2023/01/03 16:54:56;;;;;;;12.00;6.40;;;8.60;1.00;;;;;;5030427;28;20413;-70
2023/01/03 16:57:22;;;;;;;12.27;5.23;;;8.50;1.00;;;;;;5032150;28;21146;-71
2023/01/03 16:59:48;;;;;;;10.30;4.97;;;8.40;1.00;;;;;;5047297;28;20296;-71
2023/01/03 17:02:13;;;;;;;12.87;4.80;;;8.40;1.00;;;;;;5031028;28;20193;-71
2023/01/03 17:04:40;;;;;;;7.43;4.73;;;8.30;1.00;;;;;;5032070;28;20479;-70
2023/01/03 17:07:15;;;;;;;8.23;4.80;;;8.30;1.00;;;;;;5029880;28;20174;-71
2023/01/03 17:09:41;;;;;;;10.33;5.37;;;8.30;1.00;;;;;;5031804;28;20435;-70
2023/01/03 17:12:11;;;;;;;8.63;5.43;;;8.20;1.00;;;;;;5031001;28;20524;-70
2023/01/03 17:14:37;;;;;;;16.93;7.53;;;8.20;1.00;;;;;;5031662;28;20166;-70
2023/01/03 17:17:02;;;;;;;9.73;5.00;;;8.10;1.00;;;;;;5031626;28;20419;-71
2023/01/03 17:19:29;;;;;;;9.40;4.30;;;8.10;1.00;;;;;;5029713;28;20178;-71
2023/01/03 17:21:54;;;;;;;7.00;4.30;;;8.00;1.00;;;;;;5028779;28;20198;-70
2023/01/03 17:24:26;;;;;;;6.70;4.87;;;7.90;1.00;;;;;;5043218;28;20478;-70
2023/01/03 17:27:03;;;;;;;5.00;4.27;;;7.80;1.00;;;;;;5031506;28;20162;-70
2023/01/03 17:29:30;;;;;;;6.27;3.67;;;7.80;1.00;;;;;;5031287;28;20782;-70
2023/01/03 17:31:55;;;;;;;3.90;3.17;;;7.70;1.00;;;;;;5030501;28;20515;-71
2023/01/03 17:34:25;;;;;;;5.67;3.43;;;7.60;1.00;;;;;;5030962;28;20982;-70
2023/01/03 17:36:53;;;;;;;5.10;3.20;;;7.60;1.00;;;;;;5037156;28;20182;-70
2023/01/03 17:39:20;;;;;;;3.83;2.90;;;7.50;1.00;;;;;;5011134;28;20468;-70
2023/01/03 17:44:30;;;;;;;4.10;2.83;;;7.70;1.00;;;;;;5010999;28;20409;-70
2023/01/03 17:49:45;;;;;;;7.83;4.90;;;7.70;1.00;;;;;;5023770;28;20595;-71
2023/01/03 17:52:22;;;;;;;9.83;4.40;;;7.80;1.00;;;;;;5028092;28;20451;-70
2023/01/03 17:54:48;;;;;;;7.23;4.03;;;7.90;1.00;;;;;;5030554;28;20178;-70
2023/01/03 17:57:13;;;;;;;5.30;3.50;;;7.90;1.00;;;;;;5031013;28;20722;-70
2023/01/03 17:59:39;;;;;;;7.53;4.23;;;7.90;1.00;;;;;;5030939;28;20248;-71
2023/01/03 18:02:26;;;;;;;9.23;6.27;;;7.90;1.00;;;;;;5029214;28;20182;-70
2023/01/03 18:04:51;;;;;;;13.27;6.00;;;7.90;1.00;;;;;;5030832;28;20649;-70
2023/01/03 18:07:28;;;;;;;12.83;7.40;;;7.90;1.00;;;;;;5030189;28;20515;-70
2023/01/03 18:09:55;;;;;;;9.50;5.80;;;8.00;1.00;;;;;;5028741;28;20227;-71
2023/01/03 18:12:22;;;;;;;11.20;5.90;;;8.00;1.00;;;;;;5029512;28;20962;-70
2023/01/03 18:14:48;;;;;;;11.50;6.30;;;8.00;1.00;;;;;;5018224;28;20904;-70
2023/01/03 18:17:24;;;;;;;14.77;7.03;;;8.10;1.00;;;;;;5022681;28;20450;-70
2023/01/03 18:19:50;;;;;;;13.17;7.77;;;8.10;1.00;;;;;;5020499;28;20202;-72
2023/01/03 18:22:16;;;;;;;16.00;7.47;;;8.20;1.00;;;;;;5027833;28;20447;-70
2023/01/03 18:24:41;;;;;;;13.30;7.30;;;8.10;1.00;;;;;;5030014;28;20213;-70
2023/01/03 18:27:08;;;;;;;10.53;6.30;;;8.00;1.00;;;;;;5030117;28;20428;-70
2023/01/03 18:29:33;;;;;;;6.23;4.00;;;7.90;1.00;;;;;;5029433;28;20183;-70
2023/01/03 18:31:59;;;;;;;7.57;3.43;;;7.80;1.00;;;;;;5027917;28;20455;-71
2023/01/03 18:34:24;;;;;;;7.40;3.90;;;7.70;1.00;;;;;;5029667;28;20176;-70
2023/01/03 18:36:51;;;;;;;5.47;3.70;;;7.70;1.00;;;;;;5029126;28;20177;-70
2023/01/03 18:39:28;;;;;;;49.37;14.70;;;7.60;1.00;;;;;;5028397;28;20292;-70
2023/01/03 18:43:06;;;;;;;42.83;12.30;;;7.50;1.00;;;;;;5028929;28;20427;-71
2023/01/03 18:44:40;;;;;;;22.93;8.10;;;7.40;1.00;;;;;;5042339;28;20423;-70
2023/01/03 18:47:11;;;;;;;14.60;6.60;;;7.40;1.00;;;;;;5011278;28;20445;-69
2023/01/03 18:49:36;;;;;;;11.10;5.30;;;7.40;1.00;;;;;;5036837;28;20185;-70
2023/01/03 18:52:02;;;;;;;17.30;6.80;;;7.30;1.00;;;;;;5025905;28;20433;-71
2023/01/03 18:54:28;;;;;;;13.00;7.30;;;7.20;1.00;;;;;;5028586;28;20177;-72
2023/01/03 18:56:53;;;;;;;13.23;8.07;;;7.10;1.00;;;;;;5013186;28;20719;-70
2023/01/03 18:59:25;;;;;;;14.80;7.67;;;7.10;1.00;;;;;;5028584;28;20220;-71
2023/01/03 19:01:50;;;;;;;16.90;7.73;;;7.00;1.00;;;;;;5026654;28;20197;-70
2023/01/03 19:04:16;;;;;;;15.17;7.77;;;6.90;1.00;;;;;;5028820;28;20413;-70
2023/01/03 19:06:44;;;;;;;18.40;8.90;;;6.90;1.00;;;;;;5022857;28;20221;-69
2023/01/03 19:09:16;;;;;;;19.40;9.60;;;6.80;1.00;;;;;;5027738;28;20192;-70
2023/01/03 19:11:42;;;;;;;24.37;11.37;;;6.80;1.00;;;;;;5026553;28;20459;-69
2023/01/03 19:14:09;;;;;;;21.40;10.70;;;6.80;1.00;;;;;;5028047;28;20424;-70
2023/01/03 19:16:36;;;;;;;21.63;12.20;;;7.90;1.00;;;;;;5023678;28;20544;-70
2023/01/03 19:19:03;;;;;;;15.33;9.60;;;6.70;1.50;;;;;;5028246;28;20463;-70
2023/01/03 19:21:34;;;;;;;18.57;10.63;;;6.70;2.60;;;;;;5023733;28;20522;-70
2023/01/03 19:24:10;;;;;;;20.87;11.93;;;6.70;4.00;;;;;;5017424;28;20428;-69
2023/01/03 19:26:42;;;;;;;22.90;10.50;;;6.70;3.30;;;;;;5026240;28;20417;-70
2023/01/03 19:29:17;;;;;;;17.80;9.53;;;6.70;2.60;;;;;;5023525;28;20437;-71
2023/01/03 19:31:45;;;;;;;15.47;9.10;;;6.60;1.00;;;;;;5022682;28;20477;-69
2023/01/03 19:34:15;;;;;;;18.60;10.33;;;6.60;1.00;;;;;;5028523;28;20401;-71
2023/01/03 19:36:41;;;;;;;20.43;9.53;;;6.50;1.00;;;;;;5028303;28;20408;-70
2023/01/03 19:39:08;;;;;;;12.60;7.60;;;6.50;1.00;;;;;;5020567;28;20464;-70
2023/01/03 19:42:46;;;;;;;9.90;6.87;;;6.40;2.20;;;;;;5025483;28;20190;-71
2023/01/03 19:44:23;;;;;;;10.47;6.40;;;6.40;4.70;;;;;;5028311;28;20409;-70
2023/01/03 19:46:48;;;;;;;10.50;6.10;;;6.40;2.90;;;;;;5023882;28;20519;-70
2023/01/03 19:49:16;;;;;;;7.73;5.73;;;6.30;3.30;;;;;;5020703;28;20578;-69
2023/01/03 19:51:41;;;;;;;8.50;5.33;;;6.30;1.00;;;;;;5026232;28;20197;-70
2023/01/03 19:54:07;;;;;;;7.20;4.93;;;6.20;1.00;;;;;;5028107;28;20431;-70
2023/01/03 19:56:32;;;;;;;6.23;4.93;;;6.20;1.00;;;;;;5025920;28;20560;-70
2023/01/03 19:58:58;;;;;;;7.80;5.00;;;6.20;1.00;;;;;;5027762;28;20271;-70
2023/01/03 20:01:23;;;;;;;10.33;5.60;;;6.20;1.00;;;;;;5027624;28;20218;-70
2023/01/03 20:03:49;;;;;;;10.83;5.13;;;6.20;1.00;;;;;;5027083;28;20864;-70
2023/01/03 20:06:16;;;;;;;7.27;4.93;;;6.20;1.00;;;;;;5023444;28;20170;-70
2023/01/03 20:08:42;;;;;;;6.50;4.67;;;6.20;1.00;;;;;;5027417;28;20207;-71
2023/01/03 20:11:17;;;;;;;7.30;4.70;;;6.30;1.00;;;;;;5022532;28;20480;-69
2023/01/03 20:13:44;;;;;;;6.70;4.53;;;6.20;1.00;;;;;;5027560;28;20178;-70
2023/01/03 20:16:10;;;;;;;8.77;5.50;;;6.20;1.00;;;;;;5023261;28;20494;-68
2023/01/03 20:18:36;;;;;;;6.80;5.00;;;6.10;1.00;;;;;;5025865;28;20463;-69
2023/01/03 20:21:20;;;;;;;10.40;6.10;;;6.10;1.00;;;;;;5026299;28;20456;-69
2023/01/03 20:23:57;;;;;;;8.27;4.90;;;6.10;1.00;;;;;;5025281;28;20193;-70
2023/01/03 20:26:29;;;;;;;11.67;6.67;;;6.10;1.00;;;;;;5029079;28;20431;-71